METAR Data
IDs: Format: Raw Decoded Include TAF

Data at: 1921 UTC 25 Oct 2021

EDDL 251850Z 19007KT 9999 SCT020 BKN040 12/10 Q1018 NOSIG